createdAt,value
2023-03-03T00:02:04.859Z,28.52
2023-03-03T00:04:33.186Z,28.51
2023-03-03T00:07:01.569Z,28.97
2023-03-03T00:09:29.758Z,28.92
2023-03-03T00:11:59.498Z,28.82
2023-03-03T00:14:32.352Z,28.58
2023-03-03T00:17:01.304Z,28.49
2023-03-03T00:19:30.061Z,28.37
2023-03-03T00:21:58.309Z,28.29
2023-03-03T00:24:36.933Z,28.29
2023-03-03T00:27:17.491Z,27.93
2023-03-03T00:29:52.431Z,28.23
2023-03-03T00:32:30.329Z,28.19
2023-03-03T00:35:03.020Z,27.73
2023-03-03T00:37:34.157Z,27.35
2023-03-03T00:40:22.709Z,27.78
2023-03-03T00:42:55.761Z,27.96
2023-03-03T00:45:36.380Z,27.72
2023-03-03T00:48:21.876Z,27.64
2023-03-03T00:50:50.793Z,27.29
2023-03-03T00:53:19.807Z,27.26
2023-03-03T00:55:49.407Z,27.39
2023-03-03T00:58:21.881Z,27.26
2023-03-03T01:00:52.770Z,27.33
2023-03-03T01:03:24.783Z,27.52
2023-03-03T01:05:53.813Z,27.71
2023-03-03T01:08:22.391Z,27.65
2023-03-03T01:10:57.001Z,27.38
2023-03-03T01:13:28.394Z,27.37
2023-03-03T01:15:56.531Z,27.53
2023-03-03T01:18:25.214Z,27.68
2023-03-03T01:20:53.317Z,27.71
2023-03-03T01:23:28.787Z,27.61
2023-03-03T01:25:58.135Z,27.98
2023-03-03T01:28:26.124Z,27.86
2023-03-03T01:30:54.214Z,27.88
2023-03-03T01:33:22.393Z,28.02
2023-03-03T01:35:50.671Z,28.14
2023-03-03T01:38:20.232Z,27.96
2023-03-03T01:40:55.777Z,28.22
2023-03-03T01:43:27.493Z,28.25
2023-03-03T01:45:58.479Z,28.00
2023-03-03T01:48:28.971Z,28.50
2023-03-03T01:51:10.183Z,29.20
2023-03-03T01:53:46.522Z,29.32
2023-03-03T01:56:16.152Z,29.47
2023-03-03T01:58:47.457Z,29.29
2023-03-03T02:01:17.758Z,29.18
2023-03-03T02:03:46.015Z,28.64
2023-03-03T02:06:16.013Z,28.86
2023-03-03T02:09:13.578Z,28.89
2023-03-03T02:11:43.108Z,28.96
2023-03-03T02:14:11.836Z,28.89
2023-03-03T02:16:41.973Z,29.13
2023-03-03T02:19:17.234Z,28.73
2023-03-03T02:21:45.358Z,27.97
2023-03-03T02:24:27.656Z,28.28
2023-03-03T02:26:56.405Z,28.35
2023-03-03T02:29:24.785Z,28.53
2023-03-03T02:31:54.000Z,28.60
2023-03-03T02:34:22.995Z,28.85
2023-03-03T02:36:54.738Z,28.67
2023-03-03T02:39:27.343Z,28.59
2023-03-03T02:42:18.654Z,28.21
2023-03-03T02:44:55.100Z,27.90
2023-03-03T02:47:25.111Z,28.21
2023-03-03T02:50:00.864Z,28.33
2023-03-03T02:52:29.026Z,28.51
2023-03-03T02:54:57.213Z,28.56
2023-03-03T02:57:25.686Z,28.55
2023-03-03T02:59:55.599Z,28.77
2023-03-03T03:02:23.792Z,28.74
2023-03-03T03:04:51.911Z,29.16
2023-03-03T03:07:22.579Z,29.17
2023-03-03T03:09:50.763Z,28.94
2023-03-03T03:12:19.410Z,28.94
2023-03-03T03:14:49.288Z,28.78
2023-03-03T03:17:18.215Z,28.97
2023-03-03T03:19:47.558Z,28.83
2023-03-03T03:22:16.449Z,28.95
2023-03-03T03:24:44.803Z,28.83
2023-03-03T03:27:13.774Z,28.39
2023-03-03T03:29:43.758Z,28.50
2023-03-03T03:32:13.174Z,28.86
2023-03-03T03:34:41.402Z,28.77
2023-03-03T03:37:10.013Z,28.73
2023-03-03T03:39:58.840Z,28.78
2023-03-03T03:42:27.838Z,28.33
2023-03-03T03:44:56.153Z,28.57
2023-03-03T03:47:24.697Z,28.55
2023-03-03T03:49:53.048Z,28.62
2023-03-03T03:52:21.656Z,28.76
2023-03-03T03:54:50.149Z,28.84
2023-03-03T03:57:18.529Z,28.61
2023-03-03T04:00:11.051Z,28.65
2023-03-03T04:02:51.471Z,28.72
2023-03-03T04:05:20.858Z,28.62
2023-03-03T04:09:34.964Z,35.95
2023-03-03T04:12:04.008Z,31.62
2023-03-03T04:14:34.406Z,30.70
2023-03-03T04:17:03.630Z,30.35
2023-03-03T04:19:32.007Z,30.62
2023-03-03T04:22:00.060Z,30.37
2023-03-03T04:24:28.289Z,30.64
2023-03-03T04:26:57.026Z,30.44
2023-03-03T04:29:25.303Z,30.33
2023-03-03T04:31:53.408Z,30.42
2023-03-03T04:34:21.893Z,30.26
2023-03-03T04:36:50.134Z,30.04
2023-03-03T04:39:23.627Z,30.34
2023-03-03T04:41:52.318Z,29.92
2023-03-03T04:44:21.550Z,29.77
2023-03-03T04:46:50.473Z,29.41
2023-03-03T04:49:19.333Z,29.40
2023-03-03T04:51:49.269Z,29.38
2023-03-03T04:54:17.989Z,29.53
2023-03-03T04:56:46.596Z,29.68
2023-03-03T04:59:15.476Z,29.66
2023-03-03T05:01:46.801Z,29.51
2023-03-03T05:04:16.653Z,29.12
2023-03-03T05:06:46.785Z,29.04
2023-03-03T05:09:15.154Z,29.80
2023-03-03T05:11:43.453Z,30.04
2023-03-03T05:14:12.549Z,30.13
2023-03-03T05:16:41.176Z,30.45
2023-03-03T05:19:09.258Z,30.13
2023-03-03T05:21:41.935Z,30.17
2023-03-03T05:24:10.838Z,29.99
2023-03-03T05:26:42.092Z,29.45
2023-03-03T05:29:10.515Z,29.88
2023-03-03T05:31:38.621Z,29.73
2023-03-03T05:34:07.402Z,29.62
2023-03-03T05:36:35.402Z,30.03
2023-03-03T05:39:03.540Z,29.72
2023-03-03T05:41:31.768Z,29.26
2023-03-03T05:44:05.810Z,29.49
2023-03-03T05:46:34.144Z,29.37
2023-03-03T05:49:02.368Z,29.13
2023-03-03T05:51:30.968Z,29.04
2023-03-03T05:53:59.252Z,28.95
2023-03-03T05:56:27.337Z,28.73
2023-03-03T05:58:56.157Z,28.43
2023-03-03T06:01:24.564Z,28.15
2023-03-03T06:03:52.513Z,28.20
2023-03-03T06:06:20.491Z,28.54
2023-03-03T06:08:49.210Z,28.52
2023-03-03T06:11:19.544Z,28.90
2023-03-03T06:14:06.031Z,28.70
2023-03-03T06:16:35.371Z,28.71
2023-03-03T06:19:03.716Z,28.01
2023-03-03T06:21:32.247Z,27.86
2023-03-03T06:24:00.452Z,28.26
2023-03-03T06:26:28.752Z,28.12
2023-03-03T06:28:56.920Z,28.10
2023-03-03T06:31:25.840Z,27.94
2023-03-03T06:33:54.960Z,27.84
2023-03-03T06:36:28.851Z,27.72
2023-03-03T06:38:57.000Z,27.28
2023-03-03T06:41:25.315Z,27.22
2023-03-03T06:43:54.590Z,27.15
2023-03-03T06:46:22.964Z,26.96
2023-03-03T06:48:52.856Z,26.92
2023-03-03T06:51:31.689Z,26.66
2023-03-03T06:54:01.504Z,26.17
2023-03-03T06:56:29.725Z,26.13
2023-03-03T06:58:58.818Z,25.95
2023-03-03T07:01:27.026Z,25.58
2023-03-03T07:03:55.337Z,25.77
2023-03-03T07:06:25.408Z,25.68
2023-03-03T07:08:53.816Z,25.62
2023-03-03T07:11:22.778Z,25.37
2023-03-03T07:13:52.436Z,25.08
2023-03-03T07:16:25.177Z,24.90
2023-03-03T07:18:55.236Z,24.32
2023-03-03T07:21:33.698Z,24.25
2023-03-03T07:24:10.412Z,24.38
2023-03-03T07:26:40.633Z,24.69
2023-03-03T07:29:27.782Z,24.35
2023-03-03T07:31:58.981Z,24.10
2023-03-03T07:34:35.960Z,24.03
2023-03-03T07:37:29.661Z,23.94
2023-03-03T07:39:57.829Z,23.95
2023-03-03T07:42:40.763Z,23.73
2023-03-03T07:45:32.584Z,23.50
2023-03-03T07:48:40.221Z,23.43
2023-03-03T07:51:36.994Z,23.21
2023-03-03T07:54:28.721Z,23.36
2023-03-03T07:57:23.705Z,23.12
2023-03-03T07:59:56.152Z,22.55
2023-03-03T08:02:33.546Z,22.64
2023-03-03T08:05:04.674Z,22.18
2023-03-03T08:07:33.606Z,22.30
2023-03-03T08:10:02.390Z,21.80
2023-03-03T08:12:42.137Z,21.94
2023-03-03T08:15:27.874Z,22.04
2023-03-03T08:18:02.273Z,21.95
2023-03-03T08:20:44.655Z,21.62
2023-03-03T08:23:13.130Z,21.72
2023-03-03T08:25:42.524Z,22.07
2023-03-03T08:28:11.367Z,21.55
2023-03-03T08:30:40.828Z,21.38
2023-03-03T08:33:09.940Z,22.06
2023-03-03T08:35:38.102Z,22.28
2023-03-03T08:38:06.394Z,22.30
2023-03-03T08:40:35.167Z,22.28
2023-03-03T08:43:06.372Z,22.21
2023-03-03T08:45:34.815Z,21.62
2023-03-03T08:48:05.637Z,21.38
2023-03-03T08:50:34.856Z,21.27
2023-03-03T08:53:03.437Z,21.25
2023-03-03T08:55:38.516Z,21.29
2023-03-03T09:00:54.560Z,21.58
2023-03-03T09:03:50.925Z,22.30
2023-03-03T09:06:18.985Z,21.79
2023-03-03T09:08:48.485Z,21.35
2023-03-03T09:11:22.274Z,21.31
2023-03-03T09:13:54.169Z,20.94
2023-03-03T09:16:22.476Z,20.92
2023-03-03T09:18:54.424Z,20.92
2023-03-03T09:21:27.064Z,20.58
2023-03-03T09:23:57.300Z,20.71
2023-03-03T09:26:31.686Z,20.75
2023-03-03T09:29:15.298Z,20.99
2023-03-03T09:31:43.771Z,20.84
2023-03-03T09:34:25.653Z,20.40
2023-03-03T09:36:54.644Z,20.54
2023-03-03T09:39:23.503Z,20.60
2023-03-03T09:42:16.348Z,20.43
2023-03-03T09:45:11.691Z,20.78
2023-03-03T09:47:42.528Z,20.56
2023-03-03T09:50:31.880Z,20.37
2023-03-03T09:53:27.692Z,20.57
2023-03-03T09:56:01.451Z,20.41
2023-03-03T09:58:49.244Z,20.10
2023-03-03T10:01:20.074Z,20.09
2023-03-03T10:03:55.134Z,20.10
2023-03-03T10:06:29.499Z,19.52
2023-03-03T10:08:57.556Z,18.89
2023-03-03T10:12:02.472Z,18.48
2023-03-03T10:14:44.049Z,17.87
2023-03-03T10:17:12.355Z,17.48
2023-03-03T10:19:51.359Z,17.54
2023-03-03T10:22:52.915Z,17.42
2023-03-03T10:25:25.641Z,17.87
2023-03-03T10:28:11.906Z,17.77
2023-03-03T10:30:48.551Z,18.05
2023-03-03T10:33:29.199Z,18.47
2023-03-03T10:36:21.291Z,18.71
2023-03-03T10:39:04.150Z,18.80
2023-03-03T10:41:39.164Z,19.30
2023-03-03T10:44:28.861Z,19.52
2023-03-03T10:47:32.215Z,19.68
2023-03-03T10:50:21.742Z,19.81
2023-03-03T10:53:11.542Z,20.05
2023-03-03T10:55:50.272Z,20.37
2023-03-03T10:58:30.631Z,20.40
2023-03-03T11:01:24.510Z,21.12
2023-03-03T11:04:02.579Z,20.94
2023-03-03T11:06:42.891Z,21.17
2023-03-03T11:09:31.601Z,21.33
2023-03-03T11:12:04.372Z,22.27
2023-03-03T11:14:48.535Z,21.97
2023-03-03T11:17:52.646Z,21.80
2023-03-03T11:20:32.617Z,21.68
2023-03-03T11:23:13.151Z,21.78
2023-03-03T11:25:44.560Z,21.51
2023-03-03T11:28:47.513Z,21.43
2023-03-03T11:31:41.770Z,21.00
2023-03-03T11:34:23.464Z,20.50
2023-03-03T11:37:01.947Z,19.82
2023-03-03T11:39:31.807Z,19.46
2023-03-03T11:42:38.747Z,19.81
2023-03-03T11:45:15.279Z,20.00
2023-03-03T11:48:13.062Z,19.86
2023-03-03T11:51:02.991Z,19.86
2023-03-03T11:53:32.220Z,19.33
2023-03-03T11:56:06.110Z,19.13
2023-03-03T11:59:00.297Z,19.19
2023-03-03T12:02:24.453Z,19.02
2023-03-03T12:04:55.369Z,19.41
2023-03-03T12:07:49.939Z,19.21
2023-03-03T12:10:23.018Z,19.16
2023-03-03T12:13:17.423Z,19.37
2023-03-03T12:15:55.661Z,19.94
2023-03-03T12:18:36.098Z,20.26
2023-03-03T12:21:08.568Z,19.97
2023-03-03T12:24:14.391Z,19.93
2023-03-03T12:26:49.190Z,20.17
2023-03-03T12:29:49.625Z,19.98
2023-03-03T12:32:46.166Z,19.76
2023-03-03T12:35:24.742Z,19.68
2023-03-03T12:38:13.396Z,19.38
2023-03-03T12:40:46.646Z,19.08
2023-03-03T12:44:08.825Z,19.13
2023-03-03T12:47:20.198Z,19.37
2023-03-03T12:50:12.530Z,19.50
2023-03-03T12:53:03.623Z,20.00
2023-03-03T12:56:09.385Z,19.98
2023-03-03T12:58:45.201Z,20.11
2023-03-03T13:01:30.444Z,19.79
2023-03-03T13:04:08.862Z,19.95
2023-03-03T13:06:57.234Z,20.18
2023-03-03T13:09:38.147Z,20.48
2023-03-03T13:12:16.573Z,20.02
2023-03-03T13:14:57.108Z,20.03
2023-03-03T13:17:36.691Z,19.55
2023-03-03T13:20:19.699Z,19.86
2023-03-03T13:22:52.330Z,20.30
2023-03-03T13:25:32.642Z,20.10
2023-03-03T13:28:38.893Z,19.99
2023-03-03T13:31:20.974Z,20.23
2023-03-03T13:33:56.614Z,20.24
2023-03-03T13:36:51.038Z,20.34
2023-03-03T13:39:28.671Z,20.63
2023-03-03T13:42:01.810Z,21.03
2023-03-03T13:44:41.360Z,20.99
2023-03-03T13:47:39.832Z,20.94
2023-03-03T13:50:14.089Z,20.51
2023-03-03T13:53:24.617Z,20.55
2023-03-03T13:56:23.723Z,20.54
2023-03-03T13:59:17.290Z,20.34
2023-03-03T14:02:06.578Z,20.29
2023-03-03T14:04:53.084Z,20.52
2023-03-03T14:07:27.395Z,20.74
2023-03-03T14:10:32.845Z,20.75
2023-03-03T14:13:06.750Z,20.78
2023-03-03T14:15:55.955Z,20.86
2023-03-03T14:18:39.182Z,20.90
2023-03-03T14:21:14.939Z,20.58
2023-03-03T14:23:50.650Z,20.81
2023-03-03T14:26:18.555Z,20.62
2023-03-03T14:28:51.120Z,20.63
2023-03-03T14:31:39.589Z,20.62
2023-03-03T14:34:29.051Z,20.19
2023-03-03T14:37:42.751Z,20.61
2023-03-03T14:40:16.970Z,20.93
2023-03-03T14:42:54.046Z,20.92
2023-03-03T14:45:32.291Z,20.84
2023-03-03T14:48:00.657Z,21.00
2023-03-03T14:50:37.814Z,21.41
2023-03-03T14:53:29.282Z,21.54
2023-03-03T14:55:57.720Z,22.18
2023-03-03T14:58:40.810Z,22.09
2023-03-03T15:01:28.802Z,21.96
2023-03-03T15:03:57.057Z,22.18
2023-03-03T15:06:36.219Z,22.37
2023-03-03T15:09:43.176Z,22.26
2023-03-03T15:12:24.972Z,22.23
2023-03-03T15:15:02.728Z,22.33
2023-03-03T15:17:37.059Z,22.31
2023-03-03T15:20:43.029Z,22.73
2023-03-03T15:23:36.349Z,22.73
2023-03-03T15:26:32.825Z,21.99
2023-03-03T15:29:17.784Z,22.02
2023-03-03T15:32:04.156Z,22.48
2023-03-03T15:34:47.459Z,22.19
2023-03-03T15:37:28.598Z,22.48
2023-03-03T15:40:06.622Z,22.60
2023-03-03T15:42:48.311Z,22.93
2023-03-03T15:45:22.813Z,22.93
2023-03-03T15:47:57.411Z,22.58
2023-03-03T15:50:31.830Z,22.49
2023-03-03T15:53:35.628Z,22.56
2023-03-03T15:56:21.994Z,22.73
2023-03-03T15:59:09.084Z,23.10
2023-03-03T16:01:45.212Z,23.25
2023-03-03T16:04:15.842Z,23.11
2023-03-03T16:07:04.022Z,23.70
2023-03-03T16:09:47.766Z,23.25
2023-03-03T16:12:55.582Z,23.02
2023-03-03T16:15:35.825Z,23.49
2023-03-03T16:18:20.496Z,23.82
2023-03-03T16:20:57.462Z,24.29
2023-03-03T16:27:18.650Z,28.34
2023-03-03T16:30:25.160Z,24.95
2023-03-03T16:33:10.534Z,24.42
2023-03-03T16:35:41.700Z,24.65
2023-03-03T16:38:15.382Z,24.34
2023-03-03T16:40:47.363Z,24.53
2023-03-03T16:44:19.628Z,25.12
2023-03-03T16:46:49.293Z,24.83
2023-03-03T16:49:25.644Z,24.45
2023-03-03T16:52:02.610Z,24.17
2023-03-03T16:54:39.608Z,23.82
2023-03-03T16:57:21.875Z,23.99
2023-03-03T16:59:57.610Z,24.12
2023-03-03T17:03:16.293Z,23.98
2023-03-03T17:06:12.082Z,24.08
2023-03-03T17:08:39.075Z,24.25
2023-03-03T17:11:36.823Z,24.30
2023-03-03T17:14:30.794Z,24.00
2023-03-03T17:17:03.147Z,24.02
2023-03-03T17:19:41.012Z,24.42
2023-03-03T17:22:27.393Z,24.26
2023-03-03T17:25:00.282Z,24.10
2023-03-03T17:27:35.894Z,24.15
2023-03-03T17:30:10.159Z,23.91
2023-03-03T17:33:04.851Z,23.99
2023-03-03T17:35:58.157Z,24.64
2023-03-03T17:38:29.558Z,24.27
2023-03-03T17:41:22.484Z,24.04
2023-03-03T17:44:10.833Z,24.27
2023-03-03T17:46:54.369Z,24.05
2023-03-03T17:49:21.660Z,23.92
2023-03-03T17:52:16.516Z,24.11
2023-03-03T17:55:16.129Z,23.93
2023-03-03T17:57:57.816Z,24.01
2023-03-03T18:01:06.648Z,23.89
2023-03-03T18:03:56.579Z,24.36
2023-03-03T18:06:41.919Z,24.34
2023-03-03T18:09:35.931Z,23.98
2023-03-03T18:12:17.289Z,23.73
2023-03-03T18:15:07.092Z,23.64
2023-03-03T18:17:37.652Z,23.63
2023-03-03T18:20:41.431Z,23.51
2023-03-03T18:23:29.860Z,23.59
2023-03-03T18:25:59.281Z,23.51
2023-03-03T18:28:46.122Z,23.41
2023-03-03T18:31:25.720Z,23.74
2023-03-03T18:34:08.662Z,23.44
2023-03-03T18:36:57.920Z,23.41
2023-03-03T18:39:38.363Z,23.85
2023-03-03T18:42:25.480Z,24.12
2023-03-03T18:44:52.059Z,23.98
2023-03-03T18:47:21.731Z,24.36
2023-03-03T18:49:54.987Z,24.56
2023-03-03T18:52:24.382Z,24.68
2023-03-03T18:55:09.964Z,24.45
2023-03-03T18:57:37.063Z,24.37
2023-03-03T19:00:36.137Z,24.64
2023-03-03T19:03:03.279Z,24.98
2023-03-03T19:05:45.912Z,25.04
2023-03-03T19:08:25.221Z,25.30
2023-03-03T19:10:57.182Z,24.99
2023-03-03T19:13:32.722Z,24.91
2023-03-03T19:16:02.763Z,25.21
2023-03-03T19:18:55.752Z,25.23
2023-03-03T19:21:32.896Z,25.08
2023-03-03T19:24:27.782Z,25.32
2023-03-03T19:27:15.545Z,25.45
2023-03-03T19:29:45.639Z,25.23
2023-03-03T19:32:36.858Z,25.77
2023-03-03T19:35:41.435Z,25.63
2023-03-03T19:38:14.683Z,25.78
2023-03-03T19:41:13.180Z,25.97
2023-03-03T19:44:05.617Z,26.04
2023-03-03T19:46:58.680Z,26.56
2023-03-03T19:49:49.231Z,26.48
2023-03-03T19:52:25.422Z,26.33
2023-03-03T19:54:57.669Z,25.92
2023-03-03T19:57:53.580Z,25.94
2023-03-03T20:00:29.105Z,26.15
2023-03-03T20:03:00.326Z,26.11
2023-03-03T20:06:02.182Z,26.14
2023-03-03T20:09:04.696Z,26.91
2023-03-03T20:11:49.999Z,26.77
2023-03-03T20:14:36.346Z,26.66
2023-03-03T20:17:23.569Z,26.52
2023-03-03T20:20:18.042Z,26.69
2023-03-03T20:23:08.132Z,26.82
2023-03-03T20:26:01.839Z,27.33
2023-03-03T20:28:43.525Z,27.17
2023-03-03T20:31:25.132Z,27.58
2023-03-03T20:34:00.857Z,27.30
2023-03-03T20:36:47.680Z,26.96
2023-03-03T20:39:41.062Z,27.14
2023-03-03T20:42:26.296Z,26.99
2023-03-03T20:44:54.202Z,27.00
2023-03-03T20:47:23.289Z,27.16
2023-03-03T20:50:01.980Z,26.90
2023-03-03T20:52:47.475Z,27.18
2023-03-03T20:55:29.579Z,26.88
2023-03-03T20:58:00.409Z,27.13
2023-03-03T21:00:48.952Z,27.46
2023-03-03T21:03:33.636Z,27.52
2023-03-03T21:06:06.925Z,27.23
2023-03-03T21:08:54.132Z,27.77
2023-03-03T21:11:21.969Z,28.39
2023-03-03T21:13:53.558Z,27.98
2023-03-03T21:16:21.295Z,27.76
2023-03-03T21:19:10.626Z,27.61
2023-03-03T21:21:41.948Z,27.58
2023-03-03T21:24:14.789Z,28.35
2023-03-03T21:27:01.252Z,28.05
2023-03-03T21:29:33.646Z,28.04
2023-03-03T21:32:04.381Z,28.02
2023-03-03T21:34:33.386Z,28.00
2023-03-03T21:37:09.185Z,27.81
2023-03-03T21:39:39.083Z,28.05
2023-03-03T21:42:19.824Z,27.76
2023-03-03T21:44:49.018Z,27.80
2023-03-03T21:47:21.507Z,28.03
2023-03-03T21:49:59.743Z,28.33
2023-03-03T21:52:26.539Z,28.07
2023-03-03T21:54:53.694Z,28.23
2023-03-03T21:57:26.180Z,28.54
2023-03-03T21:59:52.917Z,28.62
2023-03-03T22:02:19.615Z,28.03
2023-03-03T22:04:46.197Z,28.67
2023-03-03T22:07:13.133Z,28.38
2023-03-03T22:09:41.610Z,28.42
2023-03-03T22:12:08.719Z,28.72
2023-03-03T22:14:37.858Z,28.43
2023-03-03T22:17:06.034Z,28.54
2023-03-03T22:19:33.586Z,28.45
2023-03-03T22:22:00.211Z,28.13
2023-03-03T22:24:27.006Z,27.85
2023-03-03T22:26:53.625Z,27.76
2023-03-03T22:29:22.199Z,27.85
2023-03-03T22:31:50.139Z,28.10
2023-03-03T22:34:17.196Z,28.33
2023-03-03T22:36:44.054Z,28.70
2023-03-03T22:39:14.687Z,28.30
2023-03-03T22:41:42.113Z,28.00
2023-03-03T22:44:09.515Z,28.41
2023-03-03T22:46:36.640Z,28.71
2023-03-03T22:49:03.707Z,28.58
2023-03-03T22:51:30.521Z,28.35
2023-03-03T22:53:57.184Z,28.26
2023-03-03T22:56:23.829Z,28.70
2023-03-03T22:58:50.430Z,28.60
2023-03-03T23:01:19.854Z,28.73
2023-03-03T23:03:46.593Z,28.87
2023-03-03T23:06:13.635Z,28.90
2023-03-03T23:08:40.389Z,29.18
2023-03-03T23:11:08.602Z,29.41
2023-03-03T23:13:35.362Z,29.05
2023-03-03T23:16:02.383Z,28.40
2023-03-03T23:18:29.347Z,28.32
2023-03-03T23:20:56.644Z,29.16
2023-03-03T23:23:23.799Z,28.47
2023-03-03T23:25:52.030Z,28.23
2023-03-03T23:28:19.515Z,28.24
2023-03-03T23:30:46.488Z,28.18
2023-03-03T23:33:14.055Z,28.27
2023-03-03T23:35:40.758Z,28.10
2023-03-03T23:38:14.638Z,28.12
2023-03-03T23:40:41.750Z,28.09
2023-03-03T23:43:08.341Z,28.40
2023-03-03T23:45:35.275Z,28.35
2023-03-03T23:48:02.046Z,28.60
2023-03-03T23:50:28.901Z,28.66
2023-03-03T23:52:56.181Z,28.34
2023-03-03T23:55:22.739Z,28.06
2023-03-03T23:57:49.719Z,27.99
